Alexandria, AL

10:23 PM CDT on September 23, 2014 (GMT -0500)
Angel Community | Change Station
CLOSE
Current Station
Personal Weather Station
Location: Jacksonville, AL
Elevation: 629 ft
Nearby Weather Stations

Elev 629 ft 33.84 °N, 85.83 °W | Updated 10 seconds ago

Clear
Clear
65.2 °F
Feels Like 65.2 °F
N
0.0
Wind Variable Wind from East
Gusts 1.0 mph

Today
High -- | Low -- °F
--% Chance of Precip.
Yesterday
High -- | Low -- °F
Precip. -- in
6:32 AM 6:38 PM
Waning Crescent, 0% visible
Pressure 30.19 in
Visibility 10.0 miles
Clouds Clear
Dew Point 59 °F
Humidity 81%
Rainfall 0.00 in
Snow Depth Not available.
UV 0 out of 12
Pollen 7.10 out of 12
Ozone Good
PM2.5 Moderate
Flu Activity Not available.
METAR KANB 240253Z AUTO 08004KT 10SM CLR 18/14 A3020 RMK AO2 SLP222 T01830139 51016

More Conditions Fewer Conditions

Pressure 30.19 in
Visibility 10.0 miles
Clouds Clear
Dew Point 59 °F
Humidity 81%
Rainfall 0.00 in
Snow Depth Not available.
UV 0 out of 12
Pollen 7.10 out of 12
Ozone Good
PM2.5 Moderate
Flu Activity Not available.
METAR KANB 240253Z AUTO 08004KT 10SM CLR 18/14 A3020 RMK AO2 SLP222 T01830139 51016

More Conditions Fewer Conditions

10-Day Weather Forecast

Almanac

Astronomy

Sep. 23, 2014 Rise Set
Actual Time 6:32 AM CDT 6:38 PM CDT
Civil Twilight 6:07 AM CDT 7:03 PM CDT
Nautical Twilight 5:38 AM CDT 7:32 PM CDT
Astronomical Twilight 5:09 AM CDT 8:02 PM CDT
Moon 5:56 AM CDT (9/23) 6:18 PM CDT (9/23)
Length of Visible Light 12h 56m
Length of Day
12h 06m
Tomorrow will be 2m 5s shorter.
Waning Crescent, 0% of the Moon is Illuminated
Today
Waning Crescent
Sep 24
New
Oct 1
First Quarter
Oct 8
Full
Oct 15
Last Quarter

Today's Extremes

State Highs State Lows

Community

WunderPhotos

Upload Photos

1,755,877 photos uploaded!

WunderBlogs® & News

Nearby

Air Quality

  Air Quality AQ Index Pollutant
Yesterday Good
PM10
Yesterday Good
OZONE
Current Moderate
PM2.5
Current Good
OZONE
Tuesday Good
OZONE
Tuesday Good
PM2.5
Wednesday Good
OZONE
Wednesday Good
PM2.5

Snow Depth

Station Depth Elevation
No new snow has been reported.

Earthquake Activity

City Distance Mag. Time & Date
No recent earthquake activity has been reported nearby.
Minimum magnitude displayed is 2.5.

Coastal Water Temperatures

Place Temperature
No Stations Reporting

Nearby Weather Stations